Dodge City Regional Airport
KDDC : now visible

Airfield :











YOU CAN JOIN US ON...

 
LOGIN :

Register | Disclaimer

   EN    FR    IT 

 









Legend :    VFR   Marginal VFR   IFR   Intensive IFR   Very Intensive IFR
Visi :
Ceiling :
>= 8 km
>= 3000ft
5 to 8 km
1000 to 3000 ft
1500m to 5 km
500 to 1000 ft
800 to 1500m
200 to 500 ft
< 800m
< 200 ft
Symbols :   Thunderstorms  Fog  Heavy snow  Heavy precipitations  Wind > 20 kt






- Airport Elevation : 2594 ft
- IATA code : DDC


KDDC - Dodge City Regional

CURRENT METAR :
  • 230109Z AUTO 30003KT 7SM OVC004 M02/M03 A3008 RMK AO2 T10171033

EXPIRED METARs :
  • 230052Z AUTO 31003KT 8SM OVC005 M02/M03 A3008 RMK AO2 SLP207 T10171033
  • 230022Z AUTO 01003KT 10SM OVC006 M02/M03 A3008 RMK AO2 CIG 004V008 T10171033
  • 222359Z AUTO 34003KT 8SM OVC004 M02/M03 A3008 RMK AO2 T10171033
  • 222352Z AUTO 35005KT 7SM OVC006 M02/M03 A3008 RMK AO2 CIG 004V008 SLP205 T10171033 11017 21022 56008
  • 222327Z AUTO 33003KT 8SM OVC008 M02/M03 A3008 RMK AO2 CIG 004V010 T10171033
  • 222308Z AUTO 01003KT 6SM BR OVC004 M02/M03 A3008 RMK AO2 T10171033
  • 222252Z AUTO 35003KT 5SM BR OVC005 M02/M03 A3008 RMK AO2 SLP208 T10171033

TAF KDDC
Valid from the 23 at 00:00 until the 24 at 00:00 UTC


222320Z 2300/2324 VRB03KT P6SM BKN009
FM230200 VRB03KT P6SM BKN011
FM230400 VRB03KT P6SM BKN035
FM231600 31013KT P6SM FEW250
FM231800 32014G22KT P6SM SKC



MET'MAP, your aeronautical weather chart ! - Copyright ORBIFLY December 2007 - Disclaimer

ORBIFLY MET'MAP TEAM :

Programming & Development : Alexandra Zaïnal
Concept & Development : Baudouin d'Aumeries
Co-Development & Prog : Marc-Olivier Méhu
Technical & hardware support : Manuel Goepfert

Contact : metmap@orbifly.com




SOURCES & CREDITS :

   NOAA       Earth
Advisory